createdAt,value
2018-05-03T00:00:42.508Z,12.77
2018-05-03T00:03:08.248Z,12.17
2018-05-03T00:05:33.976Z,9.93
2018-05-03T00:07:59.692Z,10.50
2018-05-03T00:10:25.429Z,8.80
2018-05-03T00:12:51.164Z,9.10
2018-05-03T00:15:16.904Z,8.23
2018-05-03T00:17:42.628Z,11.70
2018-05-03T00:20:08.357Z,9.40
2018-05-03T00:22:34.076Z,8.97
2018-05-03T00:24:59.799Z,8.20
2018-05-03T00:27:25.520Z,8.07
2018-05-03T00:29:51.252Z,8.03
2018-05-03T00:32:16.969Z,9.27
2018-05-03T00:34:42.697Z,9.90
2018-05-03T00:37:08.411Z,9.33
2018-05-03T00:39:34.132Z,8.57
2018-05-03T00:41:59.848Z,8.23
2018-05-03T00:44:25.581Z,8.53
2018-05-03T00:46:51.313Z,10.03
2018-05-03T00:49:17.044Z,8.93
2018-05-03T00:51:42.784Z,9.80
2018-05-03T00:54:20.817Z,9.00
2018-05-03T00:56:46.544Z,11.37
2018-05-03T00:59:12.287Z,9.60
2018-05-03T01:01:38.001Z,8.63
2018-05-03T01:04:03.733Z,9.13
2018-05-03T01:06:29.465Z,7.77
2018-05-03T01:08:55.240Z,8.10
2018-05-03T01:11:20.976Z,7.63
2018-05-03T01:13:46.713Z,7.90
2018-05-03T01:16:12.459Z,8.23
2018-05-03T01:18:38.184Z,8.47
2018-05-03T01:21:03.912Z,7.97
2018-05-03T01:23:29.633Z,8.00
2018-05-03T01:25:55.368Z,8.17
2018-05-03T01:28:21.090Z,9.47
2018-05-03T01:30:46.824Z,9.67
2018-05-03T01:33:12.556Z,7.53
2018-05-03T01:35:50.853Z,8.70
2018-05-03T01:38:16.580Z,13.47
2018-05-03T01:40:42.317Z,8.40
2018-05-03T01:43:08.040Z,7.20
2018-05-03T01:45:33.772Z,8.43
2018-05-03T01:47:59.488Z,9.07
2018-05-03T01:50:25.223Z,7.93
2018-05-03T01:52:50.955Z,9.20
2018-05-03T01:55:16.764Z,9.40
2018-05-03T01:57:42.492Z,7.53
2018-05-03T02:00:08.228Z,7.70
2018-05-03T02:02:33.960Z,6.87
2018-05-03T02:04:59.707Z,7.23
2018-05-03T02:07:25.439Z,7.87
2018-05-03T02:09:51.168Z,7.87
2018-05-03T02:12:16.891Z,7.43
2018-05-03T02:14:42.612Z,9.87
2018-05-03T02:17:08.347Z,7.60
2018-05-03T02:19:34.085Z,7.23
2018-05-03T02:21:59.803Z,9.97
2018-05-03T02:24:25.527Z,8.03
2018-05-03T02:26:51.256Z,7.50
2018-05-03T02:29:16.993Z,7.67
2018-05-03T02:31:42.729Z,7.63
2018-05-03T02:34:08.461Z,7.17
2018-05-03T02:36:34.200Z,8.77
2018-05-03T02:38:59.924Z,7.90
2018-05-03T02:41:25.656Z,9.23
2018-05-03T02:43:51.371Z,7.97
2018-05-03T02:46:17.108Z,8.20
2018-05-03T02:48:42.836Z,7.00
2018-05-03T02:51:08.568Z,7.80
2018-05-03T02:53:34.307Z,11.23
2018-05-03T02:56:00.043Z,9.23
2018-05-03T02:58:38.272Z,7.17
2018-05-03T03:01:22.813Z,8.07
2018-05-03T03:04:07.293Z,7.68
2018-05-03T03:06:51.620Z,7.67
2018-05-03T03:09:36.019Z,7.45
2018-05-03T03:26:01.423Z,8.55
2018-05-03T03:28:45.929Z,9.40
2018-05-03T03:31:30.355Z,8.27
2018-05-03T03:34:15.972Z,8.93
2018-05-03T03:40:08.272Z,8.10
2018-05-03T03:56:14.069Z,9.65
2018-05-03T03:58:39.808Z,8.87
2018-05-03T04:01:05.532Z,9.63
2018-05-03T04:03:31.267Z,9.63
2018-05-03T04:05:57.008Z,11.40
2018-05-03T04:08:22.749Z,10.00
2018-05-03T04:10:48.476Z,9.83
2018-05-03T04:13:14.196Z,10.47
2018-05-03T04:15:39.925Z,9.33
2018-05-03T04:18:17.900Z,9.43
2018-05-03T04:21:07.559Z,8.50
2018-05-03T04:23:45.887Z,8.83
2018-05-03T04:26:11.628Z,10.83
2018-05-03T04:28:37.369Z,9.93
2018-05-03T04:31:03.095Z,9.90
2018-05-03T04:33:28.832Z,13.57
2018-05-03T04:35:54.551Z,9.87
2018-05-03T04:38:20.324Z,9.57
2018-05-03T04:40:46.065Z,10.53
2018-05-03T04:43:11.803Z,10.50
2018-05-03T04:45:37.536Z,11.67
2018-05-03T04:48:03.268Z,11.33
2018-05-03T04:50:29.016Z,12.57
2018-05-03T04:52:54.768Z,10.03
2018-05-03T04:55:20.529Z,9.87
2018-05-03T04:57:46.368Z,10.27
2018-05-03T05:00:12.201Z,11.27
2018-05-03T05:02:37.937Z,12.97
2018-05-03T05:05:03.679Z,13.73
2018-05-03T05:07:29.415Z,11.07
2018-05-03T05:09:55.153Z,11.97
2018-05-03T05:12:20.888Z,12.50
2018-05-03T05:14:46.619Z,12.57
2018-05-03T05:17:12.341Z,12.80
2018-05-03T05:19:38.075Z,13.57
2018-05-03T05:22:03.808Z,13.20
2018-05-03T05:24:29.622Z,15.23
2018-05-03T05:26:55.465Z,13.93
2018-05-03T05:29:21.198Z,14.93
2018-05-03T05:31:46.936Z,17.43
2018-05-03T05:34:12.657Z,18.10
2018-05-03T05:36:38.393Z,21.10
2018-05-03T05:39:04.198Z,16.90
2018-05-03T05:41:29.899Z,11.73
2018-05-03T05:43:55.645Z,14.83
2018-05-03T05:46:21.419Z,11.23
2018-05-03T05:48:47.161Z,11.57
2018-05-03T05:51:13.098Z,10.87
2018-05-03T05:53:38.836Z,11.77
2018-05-03T05:56:04.559Z,11.60
2018-05-03T05:58:30.293Z,9.77
2018-05-03T06:00:56.028Z,8.93
2018-05-03T06:03:21.765Z,10.13
2018-05-03T06:05:47.512Z,12.80
2018-05-03T06:08:13.250Z,11.03
2018-05-03T06:10:38.995Z,12.63
2018-05-03T06:13:04.733Z,13.80
2018-05-03T06:15:30.467Z,13.93
2018-05-03T06:17:56.198Z,19.10
2018-05-03T06:20:21.928Z,15.03
2018-05-03T06:22:47.670Z,11.97
2018-05-03T06:25:13.404Z,10.80
2018-05-03T06:27:39.146Z,11.23
2018-05-03T06:30:04.891Z,11.13
2018-05-03T06:32:30.632Z,12.73
2018-05-03T06:34:56.363Z,11.67
2018-05-03T06:37:22.117Z,12.23
2018-05-03T06:39:47.864Z,11.00
2018-05-03T06:42:13.600Z,11.17
2018-05-03T06:44:39.327Z,9.43
2018-05-03T06:47:05.072Z,10.63
2018-05-03T06:49:30.796Z,14.53
2018-05-03T06:51:56.546Z,8.13
2018-05-03T06:54:22.276Z,8.83
2018-05-03T06:56:48.020Z,7.87
2018-05-03T06:59:13.752Z,9.77
2018-05-03T07:01:39.480Z,7.50
2018-05-03T07:04:05.300Z,8.40
2018-05-03T07:06:30.955Z,7.67
2018-05-03T07:08:56.676Z,9.03
2018-05-03T07:11:22.397Z,9.17
2018-05-03T07:13:48.119Z,10.83
2018-05-03T07:16:13.842Z,5.57
2018-05-03T07:18:39.575Z,13.63
2018-05-03T07:21:05.304Z,7.73
2018-05-03T07:23:31.045Z,8.57
2018-05-03T07:25:56.793Z,5.80
2018-05-03T07:28:22.529Z,7.10
2018-05-03T07:30:48.260Z,9.63
2018-05-03T07:33:14.001Z,9.40
2018-05-03T07:35:39.728Z,9.17
2018-05-03T07:38:05.457Z,6.67
2018-05-03T07:40:31.170Z,6.17
2018-05-03T07:42:56.894Z,8.83
2018-05-03T07:45:22.603Z,6.53
2018-05-03T07:47:48.333Z,9.77
2018-05-03T07:50:14.065Z,9.93
2018-05-03T07:52:39.800Z,7.57
2018-05-03T07:55:05.518Z,5.67
2018-05-03T07:57:31.264Z,9.07
2018-05-03T07:59:56.996Z,9.70
2018-05-03T08:02:22.740Z,8.50
2018-05-03T08:04:48.455Z,9.40
2018-05-03T08:07:14.183Z,10.17
2018-05-03T08:09:39.912Z,6.80
2018-05-03T08:12:05.635Z,8.67
2018-05-03T08:14:31.375Z,10.03
2018-05-03T08:16:57.156Z,7.30
2018-05-03T08:19:22.864Z,9.20
2018-05-03T08:21:48.588Z,6.03
2018-05-03T08:24:14.324Z,6.33
2018-05-03T08:26:40.052Z,8.27
2018-05-03T08:29:05.785Z,6.17
2018-05-03T08:31:31.527Z,5.30
2018-05-03T08:33:57.261Z,5.03
2018-05-03T08:36:22.980Z,7.00
2018-05-03T08:38:48.716Z,5.53
2018-05-03T08:41:14.445Z,7.60
2018-05-03T08:43:40.196Z,6.63
2018-05-03T08:46:05.933Z,10.03
2018-05-03T08:48:31.677Z,9.10
2018-05-03T08:50:57.415Z,7.13
2018-05-03T08:53:23.170Z,9.33
2018-05-03T08:55:48.940Z,7.30
2018-05-03T08:58:14.676Z,4.83
2018-05-03T09:00:40.405Z,4.63
2018-05-03T09:03:06.150Z,5.83
2018-05-03T09:05:31.868Z,6.83
2018-05-03T09:07:57.601Z,5.63
2018-05-03T09:10:23.324Z,7.83
2018-05-03T09:12:49.045Z,5.43
2018-05-03T09:15:14.781Z,8.43
2018-05-03T09:17:40.508Z,7.27
2018-05-03T09:20:06.252Z,5.33
2018-05-03T09:22:32.029Z,5.43
2018-05-03T09:24:57.711Z,5.33
2018-05-03T09:27:23.432Z,6.57
2018-05-03T09:29:49.156Z,5.70
2018-05-03T09:32:14.885Z,6.97
2018-05-03T09:34:40.611Z,5.37
2018-05-03T09:37:06.320Z,7.37
2018-05-03T09:39:32.052Z,6.50
2018-05-03T09:41:57.763Z,7.37
2018-05-03T09:44:23.551Z,5.47
2018-05-03T09:46:49.217Z,7.23
2018-05-03T09:49:14.960Z,9.47
2018-05-03T09:51:40.684Z,7.03
2018-05-03T09:54:06.416Z,6.53
2018-05-03T09:56:32.132Z,5.03
2018-05-03T09:58:57.874Z,5.70
2018-05-03T10:01:23.587Z,7.33
2018-05-03T10:03:49.328Z,4.77
2018-05-03T10:06:15.060Z,5.33
2018-05-03T10:08:40.799Z,6.27
2018-05-03T10:11:06.523Z,6.43
2018-05-03T10:13:32.245Z,4.67
2018-05-03T10:15:57.961Z,7.30
2018-05-03T10:18:23.718Z,4.47
2018-05-03T10:20:49.415Z,6.03
2018-05-03T10:23:15.144Z,7.37
2018-05-03T10:25:40.881Z,7.63
2018-05-03T10:28:06.598Z,6.40
2018-05-03T10:30:32.332Z,10.00
2018-05-03T10:32:58.048Z,4.80
2018-05-03T10:35:23.772Z,6.10
2018-05-03T10:37:49.503Z,5.90
2018-05-03T10:40:15.224Z,6.20
2018-05-03T10:42:40.952Z,6.50
2018-05-03T10:45:06.681Z,5.67
2018-05-03T10:47:32.423Z,4.43
2018-05-03T10:49:58.165Z,7.77
2018-05-03T10:52:23.884Z,5.90
2018-05-03T10:54:49.616Z,4.20
2018-05-03T10:57:15.341Z,6.07
2018-05-03T10:59:41.071Z,6.60
2018-05-03T11:02:06.779Z,8.00
2018-05-03T11:04:32.492Z,6.03
2018-05-03T11:06:58.239Z,5.97
2018-05-03T11:09:23.968Z,6.80
2018-05-03T11:11:49.691Z,7.07
2018-05-03T11:14:15.425Z,6.37
2018-05-03T11:16:41.210Z,4.80
2018-05-03T11:19:06.874Z,5.20
2018-05-03T11:21:32.583Z,5.97
2018-05-03T11:23:58.325Z,5.70
2018-05-03T11:26:24.048Z,5.27
2018-05-03T11:28:49.772Z,7.13
2018-05-03T11:31:15.500Z,7.03
2018-05-03T11:33:41.220Z,6.73
2018-05-03T11:36:06.948Z,4.67
2018-05-03T11:38:32.659Z,6.70
2018-05-03T11:40:58.376Z,5.23
2018-05-03T11:43:24.096Z,3.57
2018-05-03T11:45:49.829Z,7.60
2018-05-03T11:48:15.539Z,5.10
2018-05-03T11:50:41.271Z,5.13
2018-05-03T11:53:06.993Z,5.53
2018-05-03T11:55:32.728Z,4.97
2018-05-03T11:57:58.464Z,5.33
2018-05-03T12:00:31.226Z,4.00
2018-05-03T12:02:56.969Z,5.33
2018-05-03T12:05:22.699Z,5.67
2018-05-03T12:07:48.419Z,5.23
2018-05-03T12:10:14.160Z,4.67
2018-05-03T12:12:39.871Z,5.30
2018-05-03T12:15:05.600Z,5.67
2018-05-03T12:17:31.323Z,5.33
2018-05-03T12:19:57.059Z,3.73
2018-05-03T12:22:22.789Z,4.70
2018-05-03T12:24:48.519Z,5.17
2018-05-03T12:27:14.236Z,3.43
2018-05-03T12:29:39.971Z,4.83
2018-05-03T12:32:05.705Z,3.07
2018-05-03T12:34:31.444Z,5.37
2018-05-03T12:36:57.175Z,4.37
2018-05-03T12:39:22.896Z,5.60
2018-05-03T12:41:48.632Z,5.60
2018-05-03T12:44:14.352Z,7.17
2018-05-03T12:46:40.085Z,3.20
2018-05-03T12:49:05.806Z,7.77
2018-05-03T12:51:31.552Z,3.67
2018-05-03T12:53:57.272Z,5.57
2018-05-03T12:56:23.005Z,3.50
2018-05-03T12:58:48.728Z,4.43
2018-05-03T13:01:14.454Z,5.20
2018-05-03T13:03:40.180Z,5.73
2018-05-03T13:06:05.908Z,5.67
2018-05-03T13:08:31.628Z,4.33
2018-05-03T13:10:57.368Z,2.97
2018-05-03T13:13:23.081Z,7.73
2018-05-03T13:15:48.823Z,4.93
2018-05-03T13:18:14.548Z,4.80
2018-05-03T13:20:40.279Z,4.67
2018-05-03T13:23:05.995Z,3.67
2018-05-03T13:25:31.723Z,2.93
2018-05-03T13:27:57.450Z,4.03
2018-05-03T13:30:23.200Z,4.77
2018-05-03T13:32:48.903Z,4.50
2018-05-03T13:35:14.631Z,6.03
2018-05-03T13:37:40.361Z,5.87
2018-05-03T13:40:06.107Z,3.40
2018-05-03T13:42:31.826Z,5.00
2018-05-03T13:44:57.548Z,3.87
2018-05-03T13:47:23.451Z,4.33
2018-05-03T13:49:49.004Z,3.67
2018-05-03T13:52:14.732Z,2.90
2018-05-03T13:54:40.454Z,3.70
2018-05-03T13:57:06.199Z,5.97
2018-05-03T13:59:31.924Z,3.60
2018-05-03T14:01:57.663Z,3.93
2018-05-03T14:04:23.374Z,4.90
2018-05-03T14:06:50.660Z,5.27
2018-05-03T14:09:20.319Z,4.93
2018-05-03T14:11:48.784Z,4.60
2018-05-03T14:14:14.984Z,5.37
2018-05-03T14:16:41.158Z,4.03
2018-05-03T14:19:08.076Z,3.30
2018-05-03T14:21:34.223Z,2.90
2018-05-03T14:24:00.367Z,4.87
2018-05-03T14:26:26.145Z,3.60
2018-05-03T14:28:51.864Z,5.03
2018-05-03T14:31:17.606Z,4.83
2018-05-03T14:33:43.326Z,4.33
2018-05-03T14:36:09.060Z,7.23
2018-05-03T14:38:34.775Z,3.30
2018-05-03T14:41:00.511Z,4.07
2018-05-03T14:43:26.239Z,4.93
2018-05-03T14:45:51.971Z,4.23
2018-05-03T14:48:17.692Z,3.67
2018-05-03T14:50:43.424Z,3.77
2018-05-03T14:53:09.151Z,3.33
2018-05-03T14:55:34.880Z,5.10
2018-05-03T14:58:00.620Z,4.37
2018-05-03T15:00:26.341Z,5.00
2018-05-03T15:02:52.071Z,4.63
2018-05-03T15:05:17.795Z,4.53
2018-05-03T15:07:43.529Z,3.37
2018-05-03T15:10:09.261Z,4.03
2018-05-03T15:12:35.052Z,6.50
2018-05-03T15:15:02.214Z,4.43
2018-05-03T15:17:29.385Z,6.93
2018-05-03T15:19:55.339Z,5.53
2018-05-03T15:22:21.076Z,3.97
2018-05-03T15:24:46.797Z,4.40
2018-05-03T15:27:12.525Z,3.07
2018-05-03T15:29:38.255Z,3.50
2018-05-03T15:32:03.985Z,5.03
2018-05-03T15:34:29.714Z,4.50
2018-05-03T15:36:56.559Z,4.37
2018-05-03T15:39:23.380Z,5.23
2018-05-03T15:41:49.128Z,3.97
2018-05-03T15:44:14.852Z,5.17
2018-05-03T15:46:40.582Z,4.17
2018-05-03T15:49:06.312Z,3.80
2018-05-03T15:51:32.047Z,5.37
2018-05-03T15:53:58.956Z,5.93
2018-05-03T15:56:25.891Z,6.67
2018-05-03T15:58:52.369Z,4.03
2018-05-03T16:01:18.112Z,5.90
2018-05-03T16:03:43.834Z,6.20
2018-05-03T16:06:09.548Z,5.23
2018-05-03T16:08:35.451Z,6.83
2018-05-03T16:11:01.181Z,4.90
2018-05-03T16:13:27.143Z,5.57
2018-05-03T16:15:52.965Z,5.47
2018-05-03T16:18:18.702Z,4.03
2018-05-03T16:20:44.476Z,4.60
2018-05-03T16:23:10.428Z,4.67
2018-05-03T16:25:36.199Z,4.87
2018-05-03T16:28:01.936Z,6.13
2018-05-03T16:30:27.760Z,6.20
2018-05-03T16:32:53.636Z,4.67
2018-05-03T16:35:19.352Z,7.00
2018-05-03T16:37:45.128Z,4.47
2018-05-03T16:40:10.869Z,4.60
2018-05-03T16:42:36.623Z,5.30
2018-05-03T16:45:02.361Z,5.57
2018-05-03T16:47:28.079Z,5.40
2018-05-03T16:49:53.799Z,2.77
2018-05-03T16:52:19.632Z,4.50
2018-05-03T16:54:45.288Z,6.63
2018-05-03T16:57:11.018Z,6.17
2018-05-03T16:59:36.747Z,5.07
2018-05-03T17:02:02.475Z,6.80
2018-05-03T17:04:28.210Z,7.83
2018-05-03T17:06:53.948Z,4.97
2018-05-03T17:09:19.681Z,6.30
2018-05-03T17:11:45.411Z,4.87
2018-05-03T17:14:11.176Z,4.00
2018-05-03T17:16:36.880Z,6.77
2018-05-03T17:19:02.629Z,5.37
2018-05-03T17:21:28.364Z,4.00
2018-05-03T17:23:54.101Z,6.67
2018-05-03T17:26:19.821Z,6.97
2018-05-03T17:28:45.574Z,6.50
2018-05-03T17:31:13.780Z,4.33
2018-05-03T17:33:39.692Z,5.00
2018-05-03T17:36:06.726Z,4.33
2018-05-03T17:38:32.717Z,5.57
2018-05-03T17:40:58.643Z,5.77
2018-05-03T17:43:24.647Z,5.50
2018-05-03T17:45:50.446Z,5.83
2018-05-03T17:48:16.191Z,4.20
2018-05-03T17:50:41.918Z,4.17
2018-05-03T17:53:07.647Z,6.27
2018-05-03T17:55:33.620Z,5.47
2018-05-03T17:57:59.454Z,4.00
2018-05-03T18:00:25.315Z,4.00
2018-05-03T18:02:51.136Z,4.77
2018-05-03T18:05:16.996Z,2.43
2018-05-03T18:07:42.956Z,5.07
2018-05-03T18:10:08.753Z,4.67
2018-05-03T18:12:34.608Z,5.57
2018-05-03T18:15:00.420Z,3.80
2018-05-03T18:17:26.184Z,3.47
2018-05-03T18:19:51.908Z,4.50
2018-05-03T18:22:17.641Z,4.90
2018-05-03T18:24:44.869Z,5.33
2018-05-03T18:27:11.715Z,4.47
2018-05-03T18:29:37.832Z,6.30
2018-05-03T18:32:03.703Z,5.97
2018-05-03T18:34:29.760Z,5.50
2018-05-03T18:36:55.492Z,6.10
2018-05-03T18:39:21.240Z,5.17
2018-05-03T18:41:47.000Z,4.97
2018-05-03T18:44:13.104Z,6.23
2018-05-03T18:46:39.048Z,5.00
2018-05-03T18:49:04.792Z,4.23
2018-05-03T18:51:30.607Z,7.80
2018-05-03T18:53:56.361Z,6.93
2018-05-03T18:56:22.101Z,6.77
2018-05-03T18:58:47.854Z,5.57
2018-05-03T19:01:13.845Z,6.77
2018-05-03T19:03:39.597Z,7.37
2018-05-03T19:06:05.337Z,6.40
2018-05-03T19:08:32.479Z,6.87
2018-05-03T19:10:59.606Z,7.40
2018-05-03T19:13:25.757Z,5.47
2018-05-03T19:15:51.912Z,6.60
2018-05-03T19:18:17.953Z,8.33
2018-05-03T19:20:44.057Z,8.10
2018-05-03T19:23:09.973Z,10.20
2018-05-03T19:25:35.920Z,14.10
2018-05-03T19:28:02.156Z,6.90
2018-05-03T19:30:28.337Z,7.53
2018-05-03T19:32:54.099Z,6.93
2018-05-03T19:35:19.835Z,7.37
2018-05-03T19:37:45.882Z,6.53
2018-05-03T19:40:11.624Z,10.23
2018-05-03T19:42:37.695Z,8.23
2018-05-03T19:45:03.444Z,12.07
2018-05-03T19:47:29.165Z,8.93
2018-05-03T19:49:54.897Z,7.60
2018-05-03T19:52:20.728Z,8.63
2018-05-03T19:54:46.498Z,8.80
2018-05-03T19:57:12.601Z,7.57
2018-05-03T19:59:38.617Z,9.70
2018-05-03T20:02:04.468Z,5.97
2018-05-03T20:04:30.747Z,5.70
2018-05-03T20:06:56.515Z,9.13
2018-05-03T20:09:22.503Z,9.90
2018-05-03T20:11:48.484Z,9.57
2018-05-03T20:14:14.674Z,5.30
2018-05-03T20:16:40.427Z,7.97
2018-05-03T20:19:06.481Z,6.60
2018-05-03T20:21:32.309Z,5.43
2018-05-03T20:23:58.472Z,7.80
2018-05-03T20:26:24.609Z,11.12
2018-05-03T20:28:50.387Z,8.23
2018-05-03T20:31:16.121Z,8.83
2018-05-03T20:33:41.881Z,8.03
2018-05-03T20:36:07.605Z,6.40
2018-05-03T20:38:33.329Z,8.17
2018-05-03T20:40:59.057Z,9.53
2018-05-03T20:43:24.781Z,7.43
2018-05-03T20:45:50.568Z,7.27
2018-05-03T20:48:16.255Z,8.13
2018-05-03T20:50:42.052Z,6.37
2018-05-03T20:53:07.775Z,9.97
2018-05-03T20:55:33.508Z,8.67
2018-05-03T20:57:59.376Z,8.47
2018-05-03T21:00:25.115Z,6.40
2018-05-03T21:02:50.847Z,9.63
2018-05-03T21:05:16.598Z,7.67
2018-05-03T21:07:42.345Z,6.10
2018-05-03T21:10:08.090Z,9.80
2018-05-03T21:12:33.857Z,9.53
2018-05-03T21:14:59.541Z,8.40
2018-05-03T21:17:25.272Z,10.60
2018-05-03T21:19:51.021Z,10.87
2018-05-03T21:22:16.753Z,10.33
2018-05-03T21:24:42.501Z,8.27
2018-05-03T21:27:08.226Z,7.40
2018-05-03T21:29:34.012Z,9.30
2018-05-03T21:31:59.753Z,8.80
2018-05-03T21:34:25.496Z,10.53
2018-05-03T21:36:51.223Z,13.20
2018-05-03T21:39:16.968Z,9.17
2018-05-03T21:41:42.686Z,10.07
2018-05-03T21:44:08.434Z,10.30
2018-05-03T21:46:34.160Z,9.03
2018-05-03T21:48:59.904Z,7.00
2018-05-03T21:51:25.644Z,8.40
2018-05-03T21:53:51.567Z,9.77
2018-05-03T21:56:17.292Z,9.07
2018-05-03T21:58:43.025Z,10.90
2018-05-03T22:01:08.769Z,7.50
2018-05-03T22:03:35.220Z,6.50
2018-05-03T22:06:00.981Z,7.47
2018-05-03T22:08:26.697Z,11.73
2018-05-03T22:10:52.432Z,10.60
2018-05-03T22:13:18.151Z,11.53
2018-05-03T22:15:44.004Z,11.67
2018-05-03T22:18:09.731Z,9.13
2018-05-03T22:20:35.467Z,7.83
2018-05-03T22:23:01.190Z,12.37
2018-05-03T22:25:26.908Z,8.80
2018-05-03T22:27:52.637Z,8.00
2018-05-03T22:30:18.388Z,8.63
2018-05-03T22:32:44.100Z,7.37
2018-05-03T22:35:09.832Z,9.90
2018-05-03T22:37:35.560Z,9.50
2018-05-03T22:40:01.300Z,9.53
2018-05-03T22:42:27.031Z,8.43
2018-05-03T22:44:52.775Z,10.67
2018-05-03T22:47:18.509Z,9.07
2018-05-03T22:49:44.253Z,10.67
2018-05-03T22:52:10.001Z,11.03
2018-05-03T22:54:35.796Z,8.03
2018-05-03T22:57:01.606Z,10.50
2018-05-03T22:59:27.357Z,10.57
2018-05-03T23:01:53.103Z,13.50
2018-05-03T23:04:18.836Z,7.03
2018-05-03T23:06:44.590Z,11.37
2018-05-03T23:09:10.305Z,10.00
2018-05-03T23:11:36.048Z,10.90
2018-05-03T23:14:01.783Z,7.47
2018-05-03T23:16:27.525Z,7.33
2018-05-03T23:18:53.261Z,6.03
2018-05-03T23:21:19.065Z,9.13
2018-05-03T23:23:44.801Z,9.57
2018-05-03T23:26:10.545Z,11.57
2018-05-03T23:28:36.280Z,10.63
2018-05-03T23:31:02.015Z,9.20
2018-05-03T23:33:27.776Z,13.37
2018-05-03T23:35:53.519Z,11.77
2018-05-03T23:38:19.271Z,12.13
2018-05-03T23:40:45.016Z,12.53
2018-05-03T23:43:11.797Z,13.27
2018-05-03T23:45:37.563Z,10.32
2018-05-03T23:48:03.312Z,13.07
2018-05-03T23:50:29.052Z,11.43
2018-05-03T23:52:54.791Z,9.07
2018-05-03T23:55:20.539Z,17.20
2018-05-03T23:57:46.260Z,10.50
